sensor_id;sensor_type;location;lat;lon;timestamp;temperature;humidity
51982;DHT22;37998;53.416;6.730;2022-11-03T00:01:08;10.80;99.90
51982;DHT22;37998;53.416;6.730;2022-11-03T00:03:34;10.80;99.90
51982;DHT22;37998;53.416;6.730;2022-11-03T00:05:59;10.70;99.90
51982;DHT22;37998;53.416;6.730;2022-11-03T00:08:37;10.80;99.90
51982;DHT22;37998;53.416;6.730;2022-11-03T00:11:08;10.80;99.90
51982;DHT22;37998;53.416;6.730;2022-11-03T00:13:35;10.80;99.90
51982;DHT22;37998;53.416;6.730;2022-11-03T00:16:01;10.80;99.90
51982;DHT22;37998;53.416;6.730;2022-11-03T00:18:27;10.80;99.90
51982;DHT22;37998;53.416;6.730;2022-11-03T00:21:00;10.80;99.90
51982;DHT22;37998;53.416;6.730;2022-11-03T00:23:28;10.80;99.90
51982;DHT22;37998;53.416;6.730;2022-11-03T00:26:18;10.80;99.90
51982;DHT22;37998;53.416;6.730;2022-11-03T00:28:43;10.80;99.90
51982;DHT22;37998;53.416;6.730;2022-11-03T00:31:17;10.80;99.90
51982;DHT22;37998;53.416;6.730;2022-11-03T00:33:43;10.90;99.90
51982;DHT22;37998;53.416;6.730;2022-11-03T00:36:14;10.80;99.90
51982;DHT22;37998;53.416;6.730;2022-11-03T00:38:41;10.90;99.90
51982;DHT22;37998;53.416;6.730;2022-11-03T00:41:08;10.90;99.90
51982;DHT22;37998;53.416;6.730;2022-11-03T00:43:34;10.90;99.90
51982;DHT22;37998;53.416;6.730;2022-11-03T00:46:02;10.80;99.90
51982;DHT22;37998;53.416;6.730;2022-11-03T00:48:29;10.80;99.90
51982;DHT22;37998;53.416;6.730;2022-11-03T00:51:11;12.60;99.90
51982;DHT22;37998;53.416;6.730;2022-11-03T00:53:48;10.80;99.90
51982;DHT22;37998;53.416;6.730;2022-11-03T00:56:21;10.90;99.90
51982;DHT22;37998;53.416;6.730;2022-11-03T00:58:48;10.80;99.90
51982;DHT22;37998;53.416;6.730;2022-11-03T01:01:22;10.80;99.90
51982;DHT22;37998;53.416;6.730;2022-11-03T01:03:51;10.80;99.90
51982;DHT22;37998;53.416;6.730;2022-11-03T01:06:37;10.80;99.90
51982;DHT22;37998;53.416;6.730;2022-11-03T01:17:11;10.80;99.90
51982;DHT22;37998;53.416;6.730;2022-11-03T01:19:37;10.80;99.90
51982;DHT22;37998;53.416;6.730;2022-11-03T01:22:02;10.70;99.90
51982;DHT22;37998;53.416;6.730;2022-11-03T01:24:28;10.80;99.90
51982;DHT22;37998;53.416;6.730;2022-11-03T01:26:54;10.70;99.90
51982;DHT22;37998;53.416;6.730;2022-11-03T01:29:19;10.70;99.90
51982;DHT22;37998;53.416;6.730;2022-11-03T01:31:45;10.70;99.90
51982;DHT22;37998;53.416;6.730;2022-11-03T01:34:14;10.70;99.90
51982;DHT22;37998;53.416;6.730;2022-11-03T01:36:40;10.70;99.90
51982;DHT22;37998;53.416;6.730;2022-11-03T01:39:08;10.60;99.90
51982;DHT22;37998;53.416;6.730;2022-11-03T01:41:33;10.60;99.90
51982;DHT22;37998;53.416;6.730;2022-11-03T01:51:53;10.60;99.90
51982;DHT22;37998;53.416;6.730;2022-11-03T01:54:22;10.60;99.90
51982;DHT22;37998;53.416;6.730;2022-11-03T01:56:48;10.60;99.90
51982;DHT22;37998;53.416;6.730;2022-11-03T01:59:17;10.60;99.90
51982;DHT22;37998;53.416;6.730;2022-11-03T02:01:45;10.60;99.90
51982;DHT22;37998;53.416;6.730;2022-11-03T02:04:23;9.30;99.90
51982;DHT22;37998;53.416;6.730;2022-11-03T02:06:57;10.60;99.90
51982;DHT22;37998;53.416;6.730;2022-11-03T02:09:26;10.60;99.90
51982;DHT22;37998;53.416;6.730;2022-11-03T02:11:53;10.60;99.90
51982;DHT22;37998;53.416;6.730;2022-11-03T02:14:30;10.60;99.90
51982;DHT22;37998;53.416;6.730;2022-11-03T02:16:59;10.50;99.90
51982;DHT22;37998;53.416;6.730;2022-11-03T02:19:47;10.50;99.90
51982;DHT22;37998;53.416;6.730;2022-11-03T02:28:00;10.60;99.90
51982;DHT22;37998;53.416;6.730;2022-11-03T02:30:31;10.50;99.90
51982;DHT22;37998;53.416;6.730;2022-11-03T02:33:30;10.50;99.90
51982;DHT22;37998;53.416;6.730;2022-11-03T02:36:09;10.50;99.90
51982;DHT22;37998;53.416;6.730;2022-11-03T02:38:51;10.50;99.90
51982;DHT22;37998;53.416;6.730;2022-11-03T02:41:19;10.50;99.90
51982;DHT22;37998;53.416;6.730;2022-11-03T02:43:47;10.50;99.90
51982;DHT22;37998;53.416;6.730;2022-11-03T02:46:14;10.50;99.90
51982;DHT22;37998;53.416;6.730;2022-11-03T02:48:40;10.50;99.90
51982;DHT22;37998;53.416;6.730;2022-11-03T02:51:06;10.50;99.90
51982;DHT22;37998;53.416;6.730;2022-11-03T02:53:38;10.50;99.90
51982;DHT22;37998;53.416;6.730;2022-11-03T02:56:09;10.60;99.90
51982;DHT22;37998;53.416;6.730;2022-11-03T02:59:13;10.50;99.90
51982;DHT22;37998;53.416;6.730;2022-11-03T03:01:48;10.60;99.90
51982;DHT22;37998;53.416;6.730;2022-11-03T03:04:29;10.50;99.90
51982;DHT22;37998;53.416;6.730;2022-11-03T03:07:05;10.50;99.90
51982;DHT22;37998;53.416;6.730;2022-11-03T03:09:36;10.50;99.90
51982;DHT22;37998;53.416;6.730;2022-11-03T03:12:05;10.50;99.90
51982;DHT22;37998;53.416;6.730;2022-11-03T03:14:37;10.50;99.90
51982;DHT22;37998;53.416;6.730;2022-11-03T03:17:14;10.60;99.90
51982;DHT22;37998;53.416;6.730;2022-11-03T03:22:43;10.50;99.90
51982;DHT22;37998;53.416;6.730;2022-11-03T03:25:14;10.50;99.90
51982;DHT22;37998;53.416;6.730;2022-11-03T03:27:46;10.50;99.90
51982;DHT22;37998;53.416;6.730;2022-11-03T03:30:13;10.50;99.90
51982;DHT22;37998;53.416;6.730;2022-11-03T03:32:44;10.50;99.90
51982;DHT22;37998;53.416;6.730;2022-11-03T03:35:17;10.60;99.90
51982;DHT22;37998;53.416;6.730;2022-11-03T03:37:47;10.50;99.90
51982;DHT22;37998;53.416;6.730;2022-11-03T03:40:21;10.50;99.90
51982;DHT22;37998;53.416;6.730;2022-11-03T03:42:49;10.60;99.90
51982;DHT22;37998;53.416;6.730;2022-11-03T03:45:17;10.60;99.90
51982;DHT22;37998;53.416;6.730;2022-11-03T03:47:44;10.60;99.90
51982;DHT22;37998;53.416;6.730;2022-11-03T03:50:10;10.60;99.90
51982;DHT22;37998;53.416;6.730;2022-11-03T03:52:36;10.60;99.90
51982;DHT22;37998;53.416;6.730;2022-11-03T03:55:03;10.60;99.90
51982;DHT22;37998;53.416;6.730;2022-11-03T03:57:32;10.60;99.90
51982;DHT22;37998;53.416;6.730;2022-11-03T03:59:57;10.70;99.90
51982;DHT22;37998;53.416;6.730;2022-11-03T04:02:23;10.70;99.90
51982;DHT22;37998;53.416;6.730;2022-11-03T04:04:49;10.70;99.90
51982;DHT22;37998;53.416;6.730;2022-11-03T04:07:14;10.70;99.90
51982;DHT22;37998;53.416;6.730;2022-11-03T04:09:59;10.80;99.90
51982;DHT22;37998;53.416;6.730;2022-11-03T04:12:24;10.80;99.90
51982;DHT22;37998;53.416;6.730;2022-11-03T04:15:12;10.80;99.90
51982;DHT22;37998;53.416;6.730;2022-11-03T04:17:56;10.70;99.90
51982;DHT22;37998;53.416;6.730;2022-11-03T04:20:41;10.80;99.90
51982;DHT22;37998;53.416;6.730;2022-11-03T04:23:25;10.70;99.90
51982;DHT22;37998;53.416;6.730;2022-11-03T04:25:53;10.70;99.90
51982;DHT22;37998;53.416;6.730;2022-11-03T04:28:20;10.80;99.90
51982;DHT22;37998;53.416;6.730;2022-11-03T04:30:46;10.70;99.90
51982;DHT22;37998;53.416;6.730;2022-11-03T04:33:15;10.70;99.90
51982;DHT22;37998;53.416;6.730;2022-11-03T04:35:42;10.70;99.90
51982;DHT22;37998;53.416;6.730;2022-11-03T04:40:48;10.70;99.90
51982;DHT22;37998;53.416;6.730;2022-11-03T04:43:17;10.70;99.90
51982;DHT22;37998;53.416;6.730;2022-11-03T04:45:44;10.70;99.90
51982;DHT22;37998;53.416;6.730;2022-11-03T04:48:13;10.60;99.90
51982;DHT22;37998;53.416;6.730;2022-11-03T04:50:39;10.70;99.90
51982;DHT22;37998;53.416;6.730;2022-11-03T04:53:10;10.60;99.90
51982;DHT22;37998;53.416;6.730;2022-11-03T04:55:39;10.80;99.90
51982;DHT22;37998;53.416;6.730;2022-11-03T04:58:37;10.60;99.90
51982;DHT22;37998;53.416;6.730;2022-11-03T05:01:03;10.70;99.90
51982;DHT22;37998;53.416;6.730;2022-11-03T05:03:35;10.80;99.90
51982;DHT22;37998;53.416;6.730;2022-11-03T05:06:13;10.70;99.90
51982;DHT22;37998;53.416;6.730;2022-11-03T05:08:40;10.70;99.90
51982;DHT22;37998;53.416;6.730;2022-11-03T05:11:23;12.20;99.90
51982;DHT22;37998;53.416;6.730;2022-11-03T05:13:51;10.70;99.90
51982;DHT22;37998;53.416;6.730;2022-11-03T05:16:18;10.70;99.90
51982;DHT22;37998;53.416;6.730;2022-11-03T05:18:46;10.70;99.90
51982;DHT22;37998;53.416;6.730;2022-11-03T05:21:14;10.70;99.90
51982;DHT22;37998;53.416;6.730;2022-11-03T05:24:12;10.70;99.90
51982;DHT22;37998;53.416;6.730;2022-11-03T05:26:37;10.80;99.90
51982;DHT22;37998;53.416;6.730;2022-11-03T05:29:21;10.70;99.90
51982;DHT22;37998;53.416;6.730;2022-11-03T05:31:50;10.70;99.90
51982;DHT22;37998;53.416;6.730;2022-11-03T05:34:36;10.70;99.90
51982;DHT22;37998;53.416;6.730;2022-11-03T05:37:27;10.70;99.90
51982;DHT22;37998;53.416;6.730;2022-11-03T05:39:59;10.70;99.90
51982;DHT22;37998;53.416;6.730;2022-11-03T05:42:38;10.70;99.90
51982;DHT22;37998;53.416;6.730;2022-11-03T05:45:33;10.70;99.90
51982;DHT22;37998;53.416;6.730;2022-11-03T05:47:57;10.60;99.90
51982;DHT22;37998;53.416;6.730;2022-11-03T05:50:27;10.60;99.90
51982;DHT22;37998;53.416;6.730;2022-11-03T05:55:39;10.60;99.90
51982;DHT22;37998;53.416;6.730;2022-11-03T05:58:18;10.50;99.90
51982;DHT22;37998;53.416;6.730;2022-11-03T06:00:46;10.80;99.90
51982;DHT22;37998;53.416;6.730;2022-11-03T06:03:22;10.50;99.90
51982;DHT22;37998;53.416;6.730;2022-11-03T06:05:49;10.50;99.90
51982;DHT22;37998;53.416;6.730;2022-11-03T06:08:23;10.50;99.90
51982;DHT22;37998;53.416;6.730;2022-11-03T06:10:54;10.50;99.90
51982;DHT22;37998;53.416;6.730;2022-11-03T06:13:28;10.50;99.90
51982;DHT22;37998;53.416;6.730;2022-11-03T06:15:58;10.40;99.90
51982;DHT22;37998;53.416;6.730;2022-11-03T06:18:30;10.50;99.90
51982;DHT22;37998;53.416;6.730;2022-11-03T06:21:13;10.50;99.90
51982;DHT22;37998;53.416;6.730;2022-11-03T06:23:41;10.50;99.90
51982;DHT22;37998;53.416;6.730;2022-11-03T06:26:21;10.50;99.90
51982;DHT22;37998;53.416;6.730;2022-11-03T06:28:49;10.50;99.90
51982;DHT22;37998;53.416;6.730;2022-11-03T06:31:23;10.50;99.90
51982;DHT22;37998;53.416;6.730;2022-11-03T06:33:52;10.50;99.90
51982;DHT22;37998;53.416;6.730;2022-11-03T06:36:21;10.50;99.90
51982;DHT22;37998;53.416;6.730;2022-11-03T06:38:59;10.50;99.90
51982;DHT22;37998;53.416;6.730;2022-11-03T06:41:27;10.50;99.90
51982;DHT22;37998;53.416;6.730;2022-11-03T06:43:53;10.50;99.90
51982;DHT22;37998;53.416;6.730;2022-11-03T06:46:20;10.50;99.90
51982;DHT22;37998;53.416;6.730;2022-11-03T06:48:59;10.50;99.90
51982;DHT22;37998;53.416;6.730;2022-11-03T06:51:28;10.50;99.90
51982;DHT22;37998;53.416;6.730;2022-11-03T06:53:56;10.50;99.90
51982;DHT22;37998;53.416;6.730;2022-11-03T06:56:25;10.50;99.90
51982;DHT22;37998;53.416;6.730;2022-11-03T06:58:52;10.50;99.90
51982;DHT22;37998;53.416;6.730;2022-11-03T07:01:31;10.50;99.90
51982;DHT22;37998;53.416;6.730;2022-11-03T07:04:00;10.50;99.90
51982;DHT22;37998;53.416;6.730;2022-11-03T07:06:33;10.50;99.90
51982;DHT22;37998;53.416;6.730;2022-11-03T07:09:06;10.50;99.90
51982;DHT22;37998;53.416;6.730;2022-11-03T07:11:39;10.60;99.90
51982;DHT22;37998;53.416;6.730;2022-11-03T07:14:17;10.50;99.90
51982;DHT22;37998;53.416;6.730;2022-11-03T07:16:53;10.60;99.90
51982;DHT22;37998;53.416;6.730;2022-11-03T07:19:25;10.60;99.90
51982;DHT22;37998;53.416;6.730;2022-11-03T07:21:53;10.80;99.90
51982;DHT22;37998;53.416;6.730;2022-11-03T07:24:30;10.70;99.90
51982;DHT22;37998;53.416;6.730;2022-11-03T07:27:01;10.70;99.90
51982;DHT22;37998;53.416;6.730;2022-11-03T07:29:31;10.70;99.90
51982;DHT22;37998;53.416;6.730;2022-11-03T07:31:58;10.80;99.90
51982;DHT22;37998;53.416;6.730;2022-11-03T07:34:28;10.80;99.90
51982;DHT22;37998;53.416;6.730;2022-11-03T07:36:57;10.90;99.90
51982;DHT22;37998;53.416;6.730;2022-11-03T07:39:24;11.00;99.90
51982;DHT22;37998;53.416;6.730;2022-11-03T07:41:50;11.00;99.90
51982;DHT22;37998;53.416;6.730;2022-11-03T07:44:19;11.10;99.90
51982;DHT22;37998;53.416;6.730;2022-11-03T07:46:46;11.20;99.90
51982;DHT22;37998;53.416;6.730;2022-11-03T07:49:30;11.20;99.90
51982;DHT22;37998;53.416;6.730;2022-11-03T07:51:58;11.30;99.90
51982;DHT22;37998;53.416;6.730;2022-11-03T07:54:32;11.40;99.90
51982;DHT22;37998;53.416;6.730;2022-11-03T07:57:12;11.40;99.90
51982;DHT22;37998;53.416;6.730;2022-11-03T07:59:42;11.40;99.90
51982;DHT22;37998;53.416;6.730;2022-11-03T08:02:31;11.40;99.90
51982;DHT22;37998;53.416;6.730;2022-11-03T08:04:58;11.40;99.90
51982;DHT22;37998;53.416;6.730;2022-11-03T08:07:24;11.30;99.90
51982;DHT22;37998;53.416;6.730;2022-11-03T08:09:50;11.40;99.90
51982;DHT22;37998;53.416;6.730;2022-11-03T08:12:16;11.40;99.90
51982;DHT22;37998;53.416;6.730;2022-11-03T08:14:42;11.40;99.90
51982;DHT22;37998;53.416;6.730;2022-11-03T08:17:07;11.50;99.90
51982;DHT22;37998;53.416;6.730;2022-11-03T08:19:33;11.50;99.90
51982;DHT22;37998;53.416;6.730;2022-11-03T08:21:59;11.50;99.90
51982;DHT22;37998;53.416;6.730;2022-11-03T08:24:25;11.50;99.90
51982;DHT22;37998;53.416;6.730;2022-11-03T08:26:51;11.60;99.90
51982;DHT22;37998;53.416;6.730;2022-11-03T08:29:17;11.60;99.90
51982;DHT22;37998;53.416;6.730;2022-11-03T08:31:43;11.60;99.90
51982;DHT22;37998;53.416;6.730;2022-11-03T08:34:09;11.70;99.90
51982;DHT22;37998;53.416;6.730;2022-11-03T08:36:35;11.70;99.90
51982;DHT22;37998;53.416;6.730;2022-11-03T08:39:04;11.70;99.90
51982;DHT22;37998;53.416;6.730;2022-11-03T08:41:30;11.80;99.90
51982;DHT22;37998;53.416;6.730;2022-11-03T08:43:56;11.80;99.90
51982;DHT22;37998;53.416;6.730;2022-11-03T08:46:21;11.80;99.90
51982;DHT22;37998;53.416;6.730;2022-11-03T08:48:48;11.80;99.90
51982;DHT22;37998;53.416;6.730;2022-11-03T08:51:14;11.90;99.90
51982;DHT22;37998;53.416;6.730;2022-11-03T08:53:40;12.00;99.90
51982;DHT22;37998;53.416;6.730;2022-11-03T08:56:10;12.00;99.90
51982;DHT22;37998;53.416;6.730;2022-11-03T08:58:35;12.00;99.90
51982;DHT22;37998;53.416;6.730;2022-11-03T09:01:01;12.10;99.90
51982;DHT22;37998;53.416;6.730;2022-11-03T09:03:26;12.20;99.90
51982;DHT22;37998;53.416;6.730;2022-11-03T09:05:52;12.30;99.90
51982;DHT22;37998;53.416;6.730;2022-11-03T09:08:18;12.40;99.90
51982;DHT22;37998;53.416;6.730;2022-11-03T09:10:43;12.50;99.90
51982;DHT22;37998;53.416;6.730;2022-11-03T09:13:09;12.60;99.90
51982;DHT22;37998;53.416;6.730;2022-11-03T09:15:35;12.70;99.90
51982;DHT22;37998;53.416;6.730;2022-11-03T09:18:01;12.80;99.90
51982;DHT22;37998;53.416;6.730;2022-11-03T09:20:26;12.90;99.90
51982;DHT22;37998;53.416;6.730;2022-11-03T09:22:53;12.90;99.90
51982;DHT22;37998;53.416;6.730;2022-11-03T09:25:18;12.90;99.90
51982;DHT22;37998;53.416;6.730;2022-11-03T09:27:44;13.00;99.90
51982;DHT22;37998;53.416;6.730;2022-11-03T09:30:12;13.00;99.90
51982;DHT22;37998;53.416;6.730;2022-11-03T09:32:38;13.00;99.90
51982;DHT22;37998;53.416;6.730;2022-11-03T09:35:04;12.90;99.90
51982;DHT22;37998;53.416;6.730;2022-11-03T09:37:30;13.00;99.90
51982;DHT22;37998;53.416;6.730;2022-11-03T09:39:55;13.00;99.90
51982;DHT22;37998;53.416;6.730;2022-11-03T09:42:22;13.00;99.90
51982;DHT22;37998;53.416;6.730;2022-11-03T09:44:48;13.00;99.90
51982;DHT22;37998;53.416;6.730;2022-11-03T09:47:23;13.00;99.90
51982;DHT22;37998;53.416;6.730;2022-11-03T09:49:49;13.00;99.90
51982;DHT22;37998;53.416;6.730;2022-11-03T09:52:21;13.10;99.90
51982;DHT22;37998;53.416;6.730;2022-11-03T09:54:49;13.00;99.90
51982;DHT22;37998;53.416;6.730;2022-11-03T09:57:16;13.10;99.90
51982;DHT22;37998;53.416;6.730;2022-11-03T09:59:46;13.10;99.90
51982;DHT22;37998;53.416;6.730;2022-11-03T10:02:25;13.10;99.90
51982;DHT22;37998;53.416;6.730;2022-11-03T10:04:53;13.20;99.90
51982;DHT22;37998;53.416;6.730;2022-11-03T10:07:20;13.20;99.90
51982;DHT22;37998;53.416;6.730;2022-11-03T10:09:48;13.20;99.90
51982;DHT22;37998;53.416;6.730;2022-11-03T10:12:15;13.30;99.90
51982;DHT22;37998;53.416;6.730;2022-11-03T10:14:43;13.30;99.90
51982;DHT22;37998;53.416;6.730;2022-11-03T10:17:17;13.40;99.90
51982;DHT22;37998;53.416;6.730;2022-11-03T10:19:51;13.40;99.90
51982;DHT22;37998;53.416;6.730;2022-11-03T10:22:19;13.50;99.90
51982;DHT22;37998;53.416;6.730;2022-11-03T10:24:44;13.60;99.90
51982;DHT22;37998;53.416;6.730;2022-11-03T10:27:23;13.60;99.90
51982;DHT22;37998;53.416;6.730;2022-11-03T10:30:08;13.70;99.90
51982;DHT22;37998;53.416;6.730;2022-11-03T10:32:34;13.80;99.90
51982;DHT22;37998;53.416;6.730;2022-11-03T10:35:01;13.80;99.90
51982;DHT22;37998;53.416;6.730;2022-11-03T10:37:27;13.90;99.90
51982;DHT22;37998;53.416;6.730;2022-11-03T10:39:54;13.90;99.90
51982;DHT22;37998;53.416;6.730;2022-11-03T10:44:51;14.00;99.90
51982;DHT22;37998;53.416;6.730;2022-11-03T10:47:25;14.00;99.90
51982;DHT22;37998;53.416;6.730;2022-11-03T10:49:55;14.00;99.90
51982;DHT22;37998;53.416;6.730;2022-11-03T10:52:27;14.00;99.90
51982;DHT22;37998;53.416;6.730;2022-11-03T10:54:56;14.00;99.90
51982;DHT22;37998;53.416;6.730;2022-11-03T10:57:23;14.00;99.90
51982;DHT22;37998;53.416;6.730;2022-11-03T10:59:50;14.00;99.90
51982;DHT22;37998;53.416;6.730;2022-11-03T11:02:25;14.00;99.90
51982;DHT22;37998;53.416;6.730;2022-11-03T11:04:59;14.00;99.90
51982;DHT22;37998;53.416;6.730;2022-11-03T11:07:38;14.00;99.90
51982;DHT22;37998;53.416;6.730;2022-11-03T11:10:20;14.00;99.90
51982;DHT22;37998;53.416;6.730;2022-11-03T11:15:43;14.00;99.90
51982;DHT22;37998;53.416;6.730;2022-11-03T11:18:09;14.10;99.90
51982;DHT22;37998;53.416;6.730;2022-11-03T11:20:36;14.00;99.90
51982;DHT22;37998;53.416;6.730;2022-11-03T11:28:36;14.10;99.90
51982;DHT22;37998;53.416;6.730;2022-11-03T11:33:47;14.20;99.90
51982;DHT22;37998;53.416;6.730;2022-11-03T11:36:21;14.20;99.90
51982;DHT22;37998;53.416;6.730;2022-11-03T11:41:13;14.30;99.90
51982;DHT22;37998;53.416;6.730;2022-11-03T11:43:42;14.40;99.90
51982;DHT22;37998;53.416;6.730;2022-11-03T11:51:27;14.70;99.90
51982;DHT22;37998;53.416;6.730;2022-11-03T11:53:53;14.80;99.90
51982;DHT22;37998;53.416;6.730;2022-11-03T11:56:19;14.80;99.90
51982;DHT22;37998;53.416;6.730;2022-11-03T11:58:50;14.90;99.90
51982;DHT22;37998;53.416;6.730;2022-11-03T12:03:55;14.90;99.90
51982;DHT22;37998;53.416;6.730;2022-11-03T12:06:37;14.70;99.90
51982;DHT22;37998;53.416;6.730;2022-11-03T12:09:13;14.80;99.90
51982;DHT22;37998;53.416;6.730;2022-11-03T12:11:44;14.80;99.90
51982;DHT22;37998;53.416;6.730;2022-11-03T12:16:56;14.70;99.90
51982;DHT22;37998;53.416;6.730;2022-11-03T12:19:43;14.70;99.90
51982;DHT22;37998;53.416;6.730;2022-11-03T12:29:51;14.60;99.90
51982;DHT22;37998;53.416;6.730;2022-11-03T12:32:16;14.60;99.90
51982;DHT22;37998;53.416;6.730;2022-11-03T12:34:42;14.60;99.90
51982;DHT22;37998;53.416;6.730;2022-11-03T12:37:08;14.50;99.90
51982;DHT22;37998;53.416;6.730;2022-11-03T12:39:34;14.60;99.90
51982;DHT22;37998;53.416;6.730;2022-11-03T12:42:00;14.50;99.90
51982;DHT22;37998;53.416;6.730;2022-11-03T12:44:26;14.60;99.90
51982;DHT22;37998;53.416;6.730;2022-11-03T12:46:51;14.50;99.90
51982;DHT22;37998;53.416;6.730;2022-11-03T12:49:17;14.50;99.90
51982;DHT22;37998;53.416;6.730;2022-11-03T12:51:43;14.50;99.90
51982;DHT22;37998;53.416;6.730;2022-11-03T12:54:08;14.50;99.90
51982;DHT22;37998;53.416;6.730;2022-11-03T12:56:34;14.50;99.90
51982;DHT22;37998;53.416;6.730;2022-11-03T12:59:00;14.50;99.90
51982;DHT22;37998;53.416;6.730;2022-11-03T13:01:25;14.50;99.90
51982;DHT22;37998;53.416;6.730;2022-11-03T13:03:51;14.50;99.90
51982;DHT22;37998;53.416;6.730;2022-11-03T13:06:17;14.50;99.90
51982;DHT22;37998;53.416;6.730;2022-11-03T13:08:42;14.50;99.90
51982;DHT22;37998;53.416;6.730;2022-11-03T13:11:08;14.40;99.90
51982;DHT22;37998;53.416;6.730;2022-11-03T13:13:52;14.40;99.90
51982;DHT22;37998;53.416;6.730;2022-11-03T13:16:18;14.40;99.90
51982;DHT22;37998;53.416;6.730;2022-11-03T13:18:44;14.40;99.90
51982;DHT22;37998;53.416;6.730;2022-11-03T13:21:10;14.50;99.90
51982;DHT22;37998;53.416;6.730;2022-11-03T13:23:35;14.30;99.90
51982;DHT22;37998;53.416;6.730;2022-11-03T13:26:01;14.40;99.90
51982;DHT22;37998;53.416;6.730;2022-11-03T13:28:27;14.30;99.90
51982;DHT22;37998;53.416;6.730;2022-11-03T13:30:52;14.40;99.90
51982;DHT22;37998;53.416;6.730;2022-11-03T13:33:18;14.40;99.90
51982;DHT22;37998;53.416;6.730;2022-11-03T13:35:43;14.30;99.90
51982;DHT22;37998;53.416;6.730;2022-11-03T13:38:09;14.30;99.90
51982;DHT22;37998;53.416;6.730;2022-11-03T13:40:35;14.20;99.90
51982;DHT22;37998;53.416;6.730;2022-11-03T13:43:00;14.30;99.90
51982;DHT22;37998;53.416;6.730;2022-11-03T13:45:26;14.20;99.90
51982;DHT22;37998;53.416;6.730;2022-11-03T13:47:52;14.20;99.90
51982;DHT22;37998;53.416;6.730;2022-11-03T13:50:18;14.20;99.90
51982;DHT22;37998;53.416;6.730;2022-11-03T13:52:43;14.20;99.90
51982;DHT22;37998;53.416;6.730;2022-11-03T13:55:10;14.10;99.90
51982;DHT22;37998;53.416;6.730;2022-11-03T13:57:36;14.10;99.90
51982;DHT22;37998;53.416;6.730;2022-11-03T14:00:04;14.10;99.90
51982;DHT22;37998;53.416;6.730;2022-11-03T14:02:29;14.10;99.90
51982;DHT22;37998;53.416;6.730;2022-11-03T14:04:55;14.10;99.90
51982;DHT22;37998;53.416;6.730;2022-11-03T14:07:21;14.10;99.90
51982;DHT22;37998;53.416;6.730;2022-11-03T14:09:46;14.10;99.90
51982;DHT22;37998;53.416;6.730;2022-11-03T14:12:12;14.10;99.90
51982;DHT22;37998;53.416;6.730;2022-11-03T14:14:57;14.10;99.90
51982;DHT22;37998;53.416;6.730;2022-11-03T14:17:22;14.10;99.90
51982;DHT22;37998;53.416;6.730;2022-11-03T14:19:49;14.10;99.90
51982;DHT22;37998;53.416;6.730;2022-11-03T14:22:15;14.10;99.90
51982;DHT22;37998;53.416;6.730;2022-11-03T14:24:40;14.00;99.90
51982;DHT22;37998;53.416;6.730;2022-11-03T14:27:06;14.00;99.90
51982;DHT22;37998;53.416;6.730;2022-11-03T14:29:32;13.90;99.90
51982;DHT22;37998;53.416;6.730;2022-11-03T14:31:57;14.00;99.90
51982;DHT22;37998;53.416;6.730;2022-11-03T14:34:23;14.00;99.90
51982;DHT22;37998;53.416;6.730;2022-11-03T14:36:49;14.00;99.90
51982;DHT22;37998;53.416;6.730;2022-11-03T14:39:14;14.00;99.90
51982;DHT22;37998;53.416;6.730;2022-11-03T14:41:40;14.00;99.90
51982;DHT22;37998;53.416;6.730;2022-11-03T14:44:24;13.90;99.90
51982;DHT22;37998;53.416;6.730;2022-11-03T14:46:50;13.90;99.90
51982;DHT22;37998;53.416;6.730;2022-11-03T14:49:16;14.00;99.90
51982;DHT22;37998;53.416;6.730;2022-11-03T14:51:41;13.90;99.90
51982;DHT22;37998;53.416;6.730;2022-11-03T14:54:07;14.00;99.90
51982;DHT22;37998;53.416;6.730;2022-11-03T14:56:33;13.90;99.90
51982;DHT22;37998;53.416;6.730;2022-11-03T14:58:58;13.90;99.90
51982;DHT22;37998;53.416;6.730;2022-11-03T15:01:24;13.90;99.90
51982;DHT22;37998;53.416;6.730;2022-11-03T15:03:50;13.90;99.90
51982;DHT22;37998;53.416;6.730;2022-11-03T15:06:15;13.90;99.90
51982;DHT22;37998;53.416;6.730;2022-11-03T15:08:41;13.80;99.90
51982;DHT22;37998;53.416;6.730;2022-11-03T15:11:07;13.80;99.90
51982;DHT22;37998;53.416;6.730;2022-11-03T15:13:35;13.90;99.90
51982;DHT22;37998;53.416;6.730;2022-11-03T15:16:00;13.80;99.90
51982;DHT22;37998;53.416;6.730;2022-11-03T15:18:26;13.80;99.90
51982;DHT22;37998;53.416;6.730;2022-11-03T15:20:52;13.80;99.90
51982;DHT22;37998;53.416;6.730;2022-11-03T15:23:18;13.80;99.90
51982;DHT22;37998;53.416;6.730;2022-11-03T15:25:44;13.80;99.90
51982;DHT22;37998;53.416;6.730;2022-11-03T15:28:10;13.70;99.90
51982;DHT22;37998;53.416;6.730;2022-11-03T15:30:36;13.70;99.90
51982;DHT22;37998;53.416;6.730;2022-11-03T15:33:02;13.80;99.90
51982;DHT22;37998;53.416;6.730;2022-11-03T15:35:28;13.80;99.90
51982;DHT22;37998;53.416;6.730;2022-11-03T15:37:53;13.80;99.90
51982;DHT22;37998;53.416;6.730;2022-11-03T15:40:20;13.70;99.90
51982;DHT22;37998;53.416;6.730;2022-11-03T15:42:45;13.70;99.90
51982;DHT22;37998;53.416;6.730;2022-11-03T15:45:13;13.70;99.90
51982;DHT22;37998;53.416;6.730;2022-11-03T15:47:41;13.60;99.90
51982;DHT22;37998;53.416;6.730;2022-11-03T15:50:08;13.60;99.90
51982;DHT22;37998;53.416;6.730;2022-11-03T15:52:34;13.60;99.90
51982;DHT22;37998;53.416;6.730;2022-11-03T15:55:00;13.50;99.90
51982;DHT22;37998;53.416;6.730;2022-11-03T15:57:26;13.60;99.90
51982;DHT22;37998;53.416;6.730;2022-11-03T15:59:52;13.50;99.90
51982;DHT22;37998;53.416;6.730;2022-11-03T16:02:17;13.50;99.90
51982;DHT22;37998;53.416;6.730;2022-11-03T16:04:43;13.50;99.90
51982;DHT22;37998;53.416;6.730;2022-11-03T16:07:12;13.40;99.90
51982;DHT22;37998;53.416;6.730;2022-11-03T16:09:37;13.50;99.90
51982;DHT22;37998;53.416;6.730;2022-11-03T16:12:03;13.50;99.90
51982;DHT22;37998;53.416;6.730;2022-11-03T16:14:29;13.40;99.90
51982;DHT22;37998;53.416;6.730;2022-11-03T16:16:54;13.40;99.90
51982;DHT22;37998;53.416;6.730;2022-11-03T16:19:21;13.40;99.90
51982;DHT22;37998;53.416;6.730;2022-11-03T16:21:46;13.40;99.90
51982;DHT22;37998;53.416;6.730;2022-11-03T16:24:12;13.40;99.90
51982;DHT22;37998;53.416;6.730;2022-11-03T16:26:38;13.40;99.90
51982;DHT22;37998;53.416;6.730;2022-11-03T16:29:04;13.40;99.90
51982;DHT22;37998;53.416;6.730;2022-11-03T16:31:29;13.50;99.90
51982;DHT22;37998;53.416;6.730;2022-11-03T16:33:55;13.40;99.90
51982;DHT22;37998;53.416;6.730;2022-11-03T16:36:23;13.30;99.90
51982;DHT22;37998;53.416;6.730;2022-11-03T16:38:49;13.30;99.90
51982;DHT22;37998;53.416;6.730;2022-11-03T16:41:14;13.30;99.90
51982;DHT22;37998;53.416;6.730;2022-11-03T16:43:40;13.30;99.90
51982;DHT22;37998;53.416;6.730;2022-11-03T16:46:05;13.30;99.90
51982;DHT22;37998;53.416;6.730;2022-11-03T16:48:31;13.30;99.90